Date,TemperatureHighF,TemperatureAvgF,TemperatureLowF,DewpointHighF,DewpointAvgF,DewpointLowF,HumidityHigh,HumidityAvg,HumidityLow,PressureMaxIn,PressureMinIn,WindSpeedMaxMPH,WindSpeedAvgMPH,GustSpeedMaxMPH,PrecipitationSumIn
2013-3-1,44,40,32,33,30,24,77,69,56,29.86,29.69,13,2,15,0.00
2013-3-2,36,33,31,26,24,21,73,68,58,29.87,29.80,7,1,12,0.00
2013-3-3,41,33,29,24,22,20,77,64,51,29.90,29.79,7,1,15,0.00
2013-3-4,43,33,27,24,20,16,72,58,45,30.02,29.90,15,2,16,0.00
2013-3-5,51,37,23,30,24,19,87,61,37,30.06,29.81,3,0,10,0.00
2013-3-6,39,35,33,36,33,30,96,92,70,29.99,29.66,4,0,6,0.58
2013-3-7,50,41,31,32,30,28,91,67,49,30.13,30.00,7,0,10,0.08
2013-3-8,50,41,32,33,29,26,80,65,49,30.26,30.12,8,1,15,0.00
2013-3-9,64,41,24,33,28,22,93,64,27,30.34,30.23,1,0,8,0.00
2013-3-10,63,45,26,36,27,22,93,57,27,30.30,30.17,11,1,15,0.00
2013-3-11,59,49,36,50,42,24,93,75,47,30.20,29.88,12,1,15,0.00
2013-3-12,58,52,41,53,45,31,96,78,59,29.94,29.71,10,2,18,1.56
2013-3-13,48,39,30,33,27,20,89,63,40,30.04,29.87,12,3,19,0.00
2013-3-14,44,37,32,24,20,18,64,51,38,30.10,30.01,13,4,19,0.00
2013-3-15,56,42,28,37,26,-100,77,56,42,30.06,29.74,9,-10,15,0.00
2013-3-16,48,40,35,40,35,33,92,82,67,29.92,29.66,2,0,6,0.04
2013-3-17,42,37,34,33,30,26,92,78,58,30.25,29.91,1,0,7,0.00
2013-3-18,37,34,33,32,28,22,95,77,61,30.29,29.87,4,0,11,0.12
2013-3-19,57,42,33,44,31,16,97,71,25,29.89,29.69,18,2,25,0.22
2013-3-20,51,41,33,28,20,17,69,45,31,29.96,29.74,11,3,19,0.00
2013-3-21,37,33,28,27,17,11,68,53,40,29.87,29.75,10,2,16,0.00
2013-3-22,44,34,28,23,20,14,73,56,44,29.98,29.85,12,3,19,0.00
2013-3-23,54,37,24,29,24,20,88,63,37,30.01,29.89,9,1,15,0.00
2013-3-24,44,36,25,31,26,21,88,69,51,29.98,29.64,3,0,6,0.00
2013-3-25,38,35,32,36,33,31,95,92,79,29.68,29.50,5,0,6,0.49
2013-3-26,51,40,27,38,31,26,97,74,45,29.96,29.68,9,1,14,0.01
2013-3-27,50,43,39,37,31,28,77,63,48,30.09,29.96,12,2,19,0.00
2013-3-28,49,43,38,33,31,29,77,65,48,30.20,30.05,9,1,12,0.00
2013-3-29,56,46,34,36,32,28,84,60,42,30.23,30.11,6,0,12,0.00
2013-3-30,60,42,29,37,30,27,92,67,30,30.20,30.08,4,0,8,0.00
2013-3-31,48,41,32,47,39,28,96,90,75,30.09,29.72,1,0,6,0.15